createdAt,value
2023-01-10T00:00:52.160Z,70.25
2023-01-10T00:03:26.371Z,70.57
2023-01-10T00:05:56.818Z,70.70
2023-01-10T00:08:23.593Z,70.22
2023-01-10T00:10:50.511Z,70.01
2023-01-10T00:13:28.304Z,69.73
2023-01-10T00:15:56.274Z,70.05
2023-01-10T00:18:29.852Z,69.91
2023-01-10T00:20:57.393Z,69.78
2023-01-10T00:23:24.040Z,69.64
2023-01-10T00:25:50.813Z,69.87
2023-01-10T00:28:20.580Z,69.56
2023-01-10T00:30:54.375Z,69.34
2023-01-10T00:33:21.670Z,69.40
2023-01-10T00:35:48.404Z,68.61
2023-01-10T00:38:17.523Z,68.24
2023-01-10T08:03:19.789Z,80.79
2023-01-10T08:05:58.163Z,79.30
2023-01-10T08:08:31.604Z,79.01
2023-01-10T08:11:02.124Z,79.92
2023-01-10T08:13:34.270Z,79.48
2023-01-10T08:16:06.225Z,79.85
2023-01-10T08:18:35.976Z,79.81
2023-01-10T08:21:03.010Z,80.59
2023-01-10T08:23:42.097Z,78.53
2023-01-10T08:26:08.937Z,78.07
2023-01-10T08:28:35.570Z,78.44
2023-01-10T08:31:07.459Z,78.76
2023-01-10T08:33:36.868Z,80.38
2023-01-10T08:36:03.744Z,80.93
2023-01-10T08:38:30.445Z,80.88
2023-01-10T08:40:57.866Z,80.77
2023-01-10T08:43:24.357Z,80.86
2023-01-10T08:45:51.406Z,79.21
2023-01-10T08:48:18.336Z,79.80
2023-01-10T08:50:49.347Z,79.52
2023-01-10T08:53:16.379Z,78.91
2023-01-10T08:55:42.964Z,79.40
2023-01-10T08:58:10.627Z,79.10
2023-01-10T09:00:37.304Z,79.22
2023-01-10T09:03:09.207Z,79.93
2023-01-10T09:05:36.068Z,79.56
2023-01-10T09:08:05.606Z,79.99
2023-01-10T09:10:32.303Z,80.49
2023-01-10T09:13:03.550Z,79.90
2023-01-10T09:15:33.313Z,79.55
2023-01-10T09:18:05.158Z,83.32
2023-01-10T09:20:34.347Z,83.66
2023-01-10T09:23:16.755Z,84.21
2023-01-10T09:25:44.628Z,84.27
2023-01-10T09:28:11.939Z,84.11
2023-01-10T09:30:38.958Z,84.91
2023-01-10T09:36:02.512Z,85.25
2023-01-10T09:38:33.197Z,86.00
2023-01-10T09:41:11.351Z,86.31
2023-01-10T09:44:14.769Z,85.92
2023-01-10T09:47:21.466Z,85.94
2023-01-10T09:50:09.795Z,85.79
2023-01-10T09:52:42.835Z,85.39
2023-01-10T09:55:39.259Z,85.35
2023-01-10T09:58:16.033Z,84.48
2023-01-10T10:00:59.624Z,84.97
2023-01-10T10:03:42.011Z,84.82
2023-01-10T10:06:13.727Z,84.58
2023-01-10T10:08:43.915Z,83.40
2023-01-10T10:11:20.130Z,83.46
2023-01-10T10:14:11.393Z,83.96
2023-01-10T10:16:41.592Z,84.59
2023-01-10T10:19:40.024Z,85.39
2023-01-10T10:22:27.911Z,87.07
2023-01-10T10:24:58.742Z,87.26
2023-01-10T10:27:58.712Z,88.24
2023-01-10T10:30:54.147Z,88.07
2023-01-10T10:33:47.355Z,88.41
2023-01-10T10:36:23.314Z,88.86
2023-01-10T10:38:55.807Z,90.08
2023-01-10T10:41:33.967Z,90.65
2023-01-10T10:44:05.665Z,91.10
2023-01-10T10:46:32.427Z,91.38
2023-01-10T10:49:29.663Z,92.06
2023-01-10T10:51:56.685Z,91.68
2023-01-10T10:54:34.612Z,91.70
2023-01-10T10:57:01.295Z,92.41
2023-01-10T10:59:32.964Z,93.16
2023-01-10T11:02:19.330Z,94.08
2023-01-10T11:04:47.964Z,94.31
2023-01-10T11:07:18.029Z,95.06
2023-01-10T11:09:58.953Z,94.72
2023-01-10T11:12:36.151Z,95.29
2023-01-10T11:15:03.510Z,94.45
2023-01-10T11:17:33.825Z,93.51
2023-01-10T11:20:03.702Z,95.15
2023-01-10T11:22:48.779Z,96.61
2023-01-10T11:25:22.269Z,95.21
2023-01-10T11:28:05.522Z,95.45
2023-01-10T11:30:36.498Z,95.35
2023-01-10T11:33:17.143Z,93.56
2023-01-10T11:36:00.422Z,95.75
2023-01-10T11:38:30.451Z,98.05
2023-01-10T11:41:22.382Z,97.31
2023-01-10T11:43:49.021Z,98.78
2023-01-10T11:46:29.484Z,97.19
2023-01-10T11:49:06.723Z,97.25
2023-01-10T11:51:42.149Z,95.78
2023-01-10T11:54:24.741Z,97.47
2023-01-10T11:57:21.242Z,96.22
2023-01-10T11:59:59.799Z,96.01
2023-01-10T12:02:32.914Z,95.86
2023-01-10T12:05:04.057Z,96.20
2023-01-10T12:07:57.593Z,92.93
2023-01-10T12:10:27.813Z,93.13
2023-01-10T12:13:20.667Z,93.66
2023-01-10T12:15:49.746Z,95.62
2023-01-10T12:18:18.828Z,97.35
2023-01-10T12:20:58.513Z,97.89
2023-01-10T12:23:36.744Z,99.84
2023-01-10T12:26:11.825Z,100.00
2023-01-10T12:28:58.740Z,100.00
2023-01-10T12:31:30.768Z,100.00
2023-01-10T12:34:05.423Z,99.73
2023-01-10T12:36:46.396Z,96.43
2023-01-10T12:39:34.413Z,99.89
2023-01-10T12:42:25.724Z,100.00
2023-01-10T12:45:03.651Z,100.00
2023-01-10T12:47:39.435Z,100.00
2023-01-10T12:50:21.268Z,100.00
2023-01-10T12:53:11.904Z,100.00
2023-01-10T12:55:44.070Z,99.59
2023-01-10T12:58:21.519Z,99.73
2023-01-10T13:01:00.101Z,100.00
2023-01-10T13:03:33.201Z,100.00
2023-01-10T13:06:03.859Z,100.00
2023-01-10T13:08:35.473Z,100.00
2023-01-10T13:11:04.233Z,100.00
2023-01-10T13:13:30.841Z,100.00
2023-01-10T13:16:36.051Z,100.00
2023-01-10T13:19:05.594Z,100.00
2023-01-10T13:21:33.768Z,100.00
2023-01-10T13:24:04.131Z,100.00
2023-01-10T13:27:02.881Z,100.00
2023-01-10T13:29:51.220Z,100.00
2023-01-10T13:32:27.666Z,100.00
2023-01-10T13:34:55.415Z,100.00
2023-01-10T13:37:25.334Z,99.87
2023-01-10T13:39:55.480Z,99.73
2023-01-10T13:43:00.682Z,100.00
2023-01-10T13:45:29.240Z,100.00
2023-01-10T13:47:58.481Z,100.00
2023-01-10T13:50:25.143Z,100.00
2023-01-10T13:53:17.804Z,100.00
2023-01-10T13:55:52.904Z,100.00
2023-01-10T13:58:42.807Z,100.00
2023-01-10T14:02:10.853Z,100.00
2023-01-10T14:04:46.716Z,99.93
2023-01-10T14:07:27.740Z,99.97
2023-01-10T14:10:23.624Z,100.00
2023-01-10T14:12:57.902Z,100.00
2023-01-10T14:15:29.139Z,100.00
2023-01-10T14:18:02.156Z,100.00
2023-01-10T14:20:31.756Z,100.00
2023-01-10T14:23:15.391Z,100.00
2023-01-10T14:25:44.194Z,100.00
2023-01-10T14:28:32.960Z,100.00
2023-01-10T14:31:08.857Z,100.00
2023-01-10T14:33:36.645Z,100.00
2023-01-10T14:36:09.228Z,100.00
2023-01-10T14:38:38.357Z,100.00
2023-01-10T14:41:12.290Z,100.00
2023-01-10T14:43:47.700Z,100.00
2023-01-10T14:46:23.202Z,100.00
2023-01-10T14:48:53.050Z,100.00
2023-01-10T20:33:29.027Z,100.00
2023-01-10T20:36:01.244Z,100.00
2023-01-10T20:38:28.698Z,100.00
2023-01-10T20:41:11.469Z,100.00
2023-01-10T20:43:41.625Z,100.00
2023-01-10T20:46:20.288Z,100.00
2023-01-10T20:48:48.508Z,100.00
2023-01-10T20:51:20.296Z,100.00
2023-01-10T20:53:56.045Z,100.00
2023-01-10T20:56:28.705Z,100.00
2023-01-10T20:58:55.891Z,100.00
2023-01-10T21:01:33.687Z,100.00
2023-01-10T21:04:06.326Z,100.00
2023-01-10T21:06:39.013Z,100.00
2023-01-10T21:09:05.969Z,100.00
2023-01-10T21:11:38.801Z,100.00
2023-01-10T21:14:14.629Z,100.00
2023-01-10T21:16:41.242Z,100.00
2023-01-10T21:19:12.819Z,100.00
2023-01-10T21:21:40.239Z,100.00
2023-01-10T21:24:07.620Z,100.00
2023-01-10T21:26:34.951Z,100.00
2023-01-10T21:29:05.644Z,100.00
2023-01-10T21:31:32.370Z,100.00
2023-01-10T21:33:59.075Z,100.00
2023-01-10T21:36:25.670Z,100.00
2023-01-10T21:38:52.197Z,100.00
2023-01-10T21:41:38.420Z,100.00
2023-01-10T21:44:06.760Z,100.00
2023-01-10T21:46:34.077Z,100.00
2023-01-10T21:49:01.968Z,100.00
2023-01-10T21:51:28.831Z,100.00
2023-01-10T21:53:55.552Z,100.00
2023-01-10T21:56:22.148Z,100.00
2023-01-10T21:58:48.791Z,100.00
2023-01-10T22:01:15.971Z,100.00
2023-01-10T22:03:45.777Z,100.00
2023-01-10T22:06:12.850Z,100.00
2023-01-10T22:08:40.590Z,100.00
2023-01-10T22:11:11.362Z,100.00
2023-01-10T22:13:45.252Z,100.00
2023-01-10T22:16:12.932Z,100.00
2023-01-10T22:18:39.504Z,100.00
2023-01-10T22:21:06.078Z,100.00
2023-01-10T22:23:33.415Z,100.00
2023-01-10T22:26:09.322Z,100.00
2023-01-10T22:28:35.910Z,100.00
2023-01-10T22:31:05.168Z,100.00
2023-01-10T22:33:40.240Z,100.00
2023-01-10T22:36:15.680Z,100.00
2023-01-10T22:38:46.248Z,100.00
2023-01-10T22:41:25.861Z,100.00
2023-01-10T22:43:53.221Z,100.00
2023-01-10T22:46:20.473Z,100.00
2023-01-10T22:48:55.385Z,100.00
2023-01-10T22:51:30.915Z,100.00
2023-01-10T22:54:00.548Z,100.00
2023-01-10T22:56:30.541Z,100.00
2023-01-10T22:58:59.727Z,100.00
2023-01-10T23:01:33.654Z,100.00
2023-01-10T23:04:00.454Z,100.00
2023-01-10T23:06:31.345Z,100.00
2023-01-10T23:09:00.998Z,100.00
2023-01-10T23:11:31.875Z,100.00
2023-01-10T23:16:47.233Z,100.00
2023-01-10T23:19:14.340Z,100.00
